Time;durP1;ratioP1;P1;durP2;ratioP2;P2;SDS_P1;SDS_P2;PMS_P1;PMS_P2;Temp;Humidity;BMP_temperature;BMP_pressure;BME280_temperature;BME280_humidity;BME280_pressure;Samples;Min_cycle;Max_cycle;Signal;HPM_P1;HPM_P2
2022/08/12 00:43:03;;;;;;;;;31.20;30.20;;;;;22.42;48.32;99257.47;6228855;28;98012;-54
2022/08/12 00:49:29;;;;;;;;;31.00;30.00;;;;;22.40;48.22;99256.91;6236344;27;97085;-56
2022/08/12 00:52:34;;;;;;;;;33.40;32.00;;;;;22.20;48.76;99219.47;6226403;28;97676;-56
2022/08/12 00:55:44;;;;;;;;;31.00;30.00;;;;;22.37;48.28;99250.09;6222072;28;97017;-56
2022/08/12 00:58:51;;;;;;;;;33.25;32.00;;;;;22.35;48.42;99246.81;6239591;28;96622;-58
2022/08/12 01:01:56;;;;;;;;;33.60;31.60;;;;;22.34;48.55;99241.59;6232460;28;96571;-56
2022/08/12 01:12:00;;;;;;;;;34.00;32.00;;;;;22.32;48.34;99241.91;6251468;27;97192;-58
2022/08/12 01:15:06;;;;;;;;;32.00;30.75;;;;;22.31;48.59;99239.44;6247601;27;97028;-55
2022/08/12 01:18:10;;;;;;;;;31.25;30.00;;;;;22.30;48.14;99235.88;6221275;27;97108;-58
2022/08/12 01:21:32;;;;;;;;;33.75;32.00;;;;;22.27;48.23;99236.47;6217373;28;97499;-57
2022/08/12 01:24:54;;;;;;;;;28.00;28.00;;;;;22.25;48.47;99232.34;6218207;28;97749;-56
2022/08/12 01:28:01;;;;;;;;;32.00;31.00;;;;;22.26;48.42;99236.75;6232660;27;97421;-58
2022/08/12 01:31:06;;;;;;;;;30.80;30.00;;;;;22.26;48.50;99237.56;6246474;27;97430;-58
2022/08/12 01:34:12;;;;;;;;;30.00;28.60;;;;;22.25;48.31;99235.91;6239836;28;96549;-55
2022/08/12 01:37:42;;;;;;;;;31.00;30.00;;;;;22.20;48.20;99240.63;6238404;27;98141;-56
2022/08/12 01:40:48;;;;;;;;;34.20;32.00;;;;;22.19;48.44;99237.06;6237040;28;97444;-58
2022/08/12 01:43:53;;;;;;;;;31.00;30.00;;;;;22.16;48.46;99248.63;6246058;27;97298;-55
2022/08/12 01:47:05;;;;;;;;;36.50;33.00;;;;;22.17;48.14;99257.69;6214854;28;97347;-58
2022/08/12 01:50:20;;;;;;;;;35.20;33.00;;;;;22.17;48.67;99254.94;6215362;28;96597;-54
2022/08/12 01:53:31;;;;;;;;;34.40;32.00;;;;;22.18;49.09;99246.44;6215799;28;97504;-58
2022/08/12 01:57:02;;;;;;;;;34.75;32.00;;;;;22.17;48.70;99244.78;6229242;27;96944;-57
2022/08/12 02:00:12;;;;;;;;;31.80;30.80;;;;;22.15;48.52;99241.50;6263343;27;98031;-58
2022/08/12 02:03:28;;;;;;;;;33.40;31.80;;;;;22.12;48.73;99242.09;6257000;27;97308;-55
2022/08/12 02:14:01;;;;;;;;;32.60;31.00;;;;;22.04;48.74;99224.28;6228564;27;96987;-58
2022/08/12 02:17:22;;;;;;;;;36.00;33.00;;;;;22.02;48.27;99237.50;6239476;27;96474;-56
2022/08/12 02:20:52;;;;;;;;;38.60;35.00;;;;;21.98;48.56;99230.13;6239985;28;96993;-57
2022/08/12 02:23:59;;;;;;;;;40.00;35.00;;;;;21.97;48.57;99225.75;6229894;28;97033;-57
2022/08/12 02:27:05;;;;;;;;;42.00;37.00;;;;;21.74;48.36;99199.03;6230628;27;96778;-55
2022/08/12 02:30:13;;;;;;;;;36.00;33.00;;;;;21.91;48.54;99215.88;6262335;27;97517;-55
2022/08/12 02:33:18;;;;;;;;;30.60;29.60;;;;;21.90;48.65;99214.22;6214746;28;97474;-57
2022/08/12 02:36:21;;;;;;;;;35.00;33.00;;;;;21.88;48.25;99214.53;6219651;27;97491;-58
2022/08/12 02:39:29;;;;;;;;;32.00;31.00;;;;;21.90;48.52;99225.22;6238277;28;97046;-57
2022/08/12 02:42:35;;;;;;;;;35.80;33.00;;;;;21.88;47.86;99213.72;6240213;28;96913;-56
2022/08/12 02:45:53;;;;;;;;;33.00;30.60;;;;;21.73;48.01;99202.88;6239349;28;97512;-57
2022/08/12 02:49:02;;;;;;;;;28.40;27.80;;;;;21.84;47.84;99221.72;6223825;28;96665;-57
2022/08/12 02:52:06;;;;;;;;;35.40;33.00;;;;;21.84;48.13;99218.16;6240544;27;97236;-58
2022/08/12 02:55:26;;;;;;;;;33.00;32.00;;;;;21.83;48.13;99219.25;6254313;27;97390;-58
2022/08/12 02:58:36;;;;;;;;;28.60;28.60;;;;;21.83;47.84;99222.00;6265371;27;96484;-55
2022/08/12 03:01:53;;;;;;;;;37.00;34.00;;;;;21.79;47.94;99209.97;6250211;27;97450;-55
2022/08/12 03:04:58;;;;;;;;;34.50;32.00;;;;;21.77;47.81;99212.16;6238822;28;97423;-55
2022/08/12 03:08:04;;;;;;;;;33.00;32.00;;;;;21.76;48.14;99218.75;6239369;27;97326;-55
2022/08/12 03:11:16;;;;;;;;;37.00;34.00;;;;;21.74;47.80;99215.50;6237562;27;97213;-58
2022/08/12 03:14:25;;;;;;;;;21.75;21.75;;;;;21.76;47.66;99210.50;6235425;28;97452;-55
2022/08/12 03:17:34;;;;;;;;;26.50;26.50;;;;;21.74;48.25;99208.06;6213771;28;97127;-56
2022/08/12 03:20:39;;;;;;;;;36.80;33.20;;;;;21.76;48.04;99222.31;6213541;28;97105;-55
2022/08/12 03:23:46;;;;;;;;;27.00;26.00;;;;;21.77;48.10;99218.47;6220919;27;96765;-58
2022/08/12 03:26:51;;;;;;;;;26.00;25.00;;;;;21.72;47.83;99214.94;6234099;28;97221;-56
2022/08/12 03:29:57;;;;;;;;;35.40;33.00;;;;;21.70;47.83;99214.44;6236423;27;96877;-57
2022/08/12 03:33:03;;;;;;;;;40.00;36.00;;;;;21.68;47.46;99197.41;6237859;28;98343;-57
2022/08/12 03:36:09;;;;;;;;;40.00;35.40;;;;;21.67;47.18;99202.09;6221980;28;97490;-57
2022/08/12 03:39:26;;;;;;;;;44.80;38.80;;;;;21.66;47.30;99207.84;6242973;27;97415;-57
2022/08/12 04:03:01;;;;;;;;;45.00;38.50;;;;;21.68;47.07;99225.69;6229260;28;96920;-58
2022/08/12 04:06:08;;;;;;;;;47.80;40.40;;;;;21.70;47.22;99223.44;6226412;28;97285;-55
2022/08/12 04:09:12;;;;;;;;;47.40;40.40;;;;;21.71;47.49;99219.59;6234796;27;97373;-55
2022/08/12 04:15:44;;;;;;;;;48.40;41.40;;;;;21.80;47.14;99217.88;6235284;27;96976;-55
2022/08/12 04:18:47;;;;;;;;;45.20;38.20;;;;;21.85;47.61;99203.28;6228339;28;98672;-58
2022/08/12 04:21:55;;;;;;;;;45.60;39.60;;;;;21.91;47.69;99205.72;6236755;28;96528;-56
2022/08/12 04:25:06;;;;;;;;;44.60;38.60;;;;;21.97;47.74;99217.50;6226950;27;96891;-58
2022/08/12 04:28:11;;;;;;;;;45.00;38.25;;;;;22.05;47.95;99219.63;6220527;27;97480;-56
2022/08/12 04:31:15;;;;;;;;;38.20;34.80;;;;;22.12;47.90;99217.38;6217327;28;97609;-58
2022/08/12 04:34:19;;;;;;;;;47.20;40.60;;;;;22.21;48.23;99226.63;6260646;27;97078;-56
2022/08/12 04:37:24;;;;;;;;;45.00;38.00;;;;;22.29;48.19;99222.41;6244912;27;96815;-57
2022/08/12 04:40:29;;;;;;;;;46.75;40.00;;;;;22.28;48.24;99218.88;6242528;27;96766;-55
2022/08/12 04:43:33;;;;;;;;;48.50;41.00;;;;;22.52;48.04;99238.13;6234247;27;98300;-55
2022/08/12 04:46:56;;;;;;;;;39.00;35.00;;;;;22.65;48.05;99244.84;6223532;28;97452;-58
2022/08/12 04:50:00;;;;;;;;;49.25;41.75;;;;;22.75;48.42;99234.59;6224151;27;98066;-57
2022/08/12 04:53:06;;;;;;;;;42.20;36.40;;;;;22.86;48.40;99221.56;6225697;27;97626;-54
2022/08/12 04:56:11;;;;;;;;;45.20;39.00;;;;;23.00;48.50;99229.91;6222427;27;98247;-55
2022/08/12 04:59:15;;;;;;;;;44.60;38.60;;;;;23.12;47.96;99228.34;6213326;28;96854;-56
2022/08/12 05:02:20;;;;;;;;;47.40;40.60;;;;;23.23;47.83;99232.59;6232917;27;97512;-56
2022/08/12 05:05:25;;;;;;;;;42.00;36.40;;;;;23.35;47.96;99236.84;6228445;27;97459;-55
2022/08/12 05:08:30;;;;;;;;;31.60;30.60;;;;;23.47;47.46;99237.25;6227988;28;97413;-57
2022/08/12 05:11:33;;;;;;;;;32.00;30.00;;;;;23.59;47.59;99245.88;6231036;28;96796;-56
2022/08/12 05:14:38;;;;;;;;;29.00;29.00;;;;;23.71;47.63;99244.31;6236308;27;97652;-58
2022/08/12 05:17:42;;;;;;;;;25.00;24.00;;;;;23.86;47.82;99242.41;6234313;27;96986;-58
2022/08/12 05:20:47;;;;;;;;;26.00;26.00;;;;;23.97;47.72;99250.22;6234380;27;97452;-56
2022/08/12 05:23:53;;;;;;;;;32.60;30.60;;;;;24.10;47.26;99254.13;6235970;27;96723;-56
2022/08/12 05:26:57;;;;;;;;;20.80;20.40;;;;;24.19;46.89;99255.09;6234197;27;97942;-59
2022/08/12 05:30:00;;;;;;;;;28.00;28.00;;;;;24.28;46.94;99244.22;6238230;28;97705;-57
2022/08/12 05:33:12;;;;;;;;;35.75;32.75;;;;;24.38;46.71;99252.31;6233816;27;97630;-59
2022/08/12 05:36:18;;;;;;;;;33.80;32.00;;;;;24.49;46.52;99251.00;6241638;27;98078;-61
2022/08/12 05:39:23;;;;;;;;;36.00;33.00;;;;;24.58;46.20;99252.75;6239945;27;97393;-63
2022/08/12 05:42:27;;;;;;;;;33.00;30.00;;;;;24.65;46.16;99268.06;6238299;28;97441;-59
2022/08/12 05:45:36;;;;;;;;;40.25;35.25;;;;;24.72;45.66;99258.28;6239017;27;96970;-60
2022/08/12 05:48:48;;;;;;;;;33.00;31.00;;;;;24.81;45.97;99261.16;6233831;28;97392;-61
2022/08/12 05:51:51;;;;;;;;;26.80;26.40;;;;;24.87;45.89;99252.50;6239191;28;96591;-58
2022/08/12 05:54:56;;;;;;;;;27.25;27.00;;;;;25.07;45.21;99267.78;6237924;28;96789;-62
2022/08/12 05:58:00;;;;;;;;;28.40;27.40;;;;;25.20;45.31;99258.72;6235469;28;97493;-59
2022/08/12 06:01:04;;;;;;;;;31.00;29.25;;;;;25.29;44.77;99267.06;6228855;28;97185;-61
2022/08/12 06:04:28;;;;;;;;;26.25;26.25;;;;;25.40;44.97;99265.72;6236722;27;97657;-60
2022/08/12 06:07:33;;;;;;;;;21.20;21.20;;;;;25.56;44.90;99263.47;6233894;28;96871;-60
2022/08/12 06:10:58;;;;;;;;;26.00;25.00;;;;;25.66;44.02;99263.22;6237798;28;96516;-62
2022/08/12 06:14:01;;;;;;;;;30.20;29.60;;;;;25.71;44.80;99263.91;6237364;27;97206;-64
2022/08/12 06:17:14;;;;;;;;;30.00;29.00;;;;;25.78;44.04;99274.53;6223063;28;97088;-62
2022/08/12 06:20:17;;;;;;;;;23.20;22.20;;;;;25.87;44.13;99265.19;6238178;28;97169;-60
2022/08/12 06:23:31;;;;;;;;;23.00;22.00;;;;;26.01;43.99;99267.91;6233622;27;97448;-59
2022/08/12 06:26:36;;;;;;;;;16.20;16.20;;;;;26.14;43.49;99278.09;6236268;27;97375;-59
2022/08/12 06:29:41;;;;;;;;;20.00;19.00;;;;;26.30;43.55;99281.28;6235792;27;97359;-60
2022/08/12 06:33:05;;;;;;;;;20.00;20.00;;;;;26.41;43.17;99281.84;6233917;28;98046;-59
2022/08/12 06:36:28;;;;;;;;;27.00;24.50;;;;;26.53;43.07;99280.16;6234735;28;100386;-63
2022/08/12 06:39:35;;;;;;;;;29.00;28.00;;;;;26.65;42.91;99287.84;6236884;27;97534;-62
2022/08/12 06:42:51;;;;;;;;;26.60;25.80;;;;;26.79;42.78;99279.44;6237002;27;97282;-61
2022/08/12 06:45:56;;;;;;;;;22.00;21.00;;;;;26.95;42.64;99280.69;6220064;27;97455;-59
2022/08/12 06:49:00;;;;;;;;;24.00;24.00;;;;;27.14;42.31;99286.78;6237563;27;96704;-57
2022/08/12 06:52:05;;;;;;;;;20.50;19.50;;;;;27.21;42.10;99292.69;6234385;27;97144;-62
2022/08/12 06:55:10;;;;;;;;;20.33;20.00;;;;;27.30;41.47;99289.91;6222635;28;97154;-62
2022/08/12 06:58:15;;;;;;;;;24.75;24.00;;;;;27.43;41.24;99275.94;6237383;27;97416;-61
2022/08/12 07:01:18;;;;;;;;;20.00;19.50;;;;;27.61;41.21;99278.78;6233451;28;97764;-60
2022/08/12 07:04:22;;;;;;;;;21.40;21.00;;;;;27.69;40.51;99278.78;6235223;28;97019;-58
2022/08/12 07:07:40;;;;;;;;;23.00;23.00;;;;;27.77;40.35;99274.38;6228632;27;97695;-58
2022/08/12 07:10:46;;;;;;;;;20.60;19.00;;;;;27.90;40.89;99276.19;6236439;27;97290;-61
2022/08/12 07:13:52;;;;;;;;;22.00;20.00;;;;;28.07;40.49;99278.13;6234059;28;97658;-60
2022/08/12 07:17:15;;;;;;;;;23.40;21.00;;;;;28.19;40.34;99278.31;6219818;28;97203;-60
2022/08/12 07:20:20;;;;;;;;;22.20;21.00;;;;;28.29;40.12;99284.34;6236405;28;97084;-64
2022/08/12 07:23:44;;;;;;;;;24.00;23.50;;;;;28.43;39.72;99286.91;6234022;27;97476;-62
2022/08/12 07:26:47;;;;;;;;;34.40;32.20;;;;;28.47;38.97;99282.31;6234448;28;97261;-56
2022/08/12 07:29:52;;;;;;;;;23.00;23.00;;;;;28.39;39.26;99285.94;6236645;27;96924;-63
2022/08/12 07:33:09;;;;;;;;;23.00;22.50;;;;;28.36;39.65;99272.72;6237195;27;96718;-58
2022/08/12 07:36:14;;;;;;;;;27.50;27.00;;;;;28.42;39.95;99279.72;6226895;28;99762;-59
2022/08/12 07:39:17;;;;;;;;;29.40;28.80;;;;;28.48;40.33;99272.88;6230327;27;97122;-62
2022/08/12 07:42:20;;;;;;;;;20.00;18.60;;;;;28.58;39.52;99280.03;6228501;27;97602;-62
2022/08/12 07:45:25;;;;;;;;;22.50;21.50;;;;;28.66;39.21;99271.66;6230954;27;97664;-60
2022/08/12 07:48:35;;;;;;;;;22.40;22.40;;;;;28.75;39.37;99268.88;6233481;27;96959;-60
2022/08/12 07:51:40;;;;;;;;;22.60;22.60;;;;;28.84;39.46;99269.66;6235492;27;97517;-57
2022/08/12 07:54:44;;;;;;;;;23.00;22.00;;;;;28.96;39.80;99257.84;6225976;28;96632;-62
2022/08/12 07:57:54;;;;;;;;;22.00;22.00;;;;;29.07;39.00;99248.00;6225625;28;97782;-61
2022/08/12 08:01:01;;;;;;;;;24.00;23.00;;;;;29.19;39.02;99250.88;6225494;28;97046;-58
2022/08/12 08:07:28;;;;;;;;;20.00;18.20;;;;;29.57;39.04;99264.69;6214985;28;98301;-62
2022/08/12 08:10:33;;;;;;;;;17.50;16.75;;;;;29.76;38.19;99273.41;6234320;28;97459;-59
2022/08/12 08:13:37;;;;;;;;;17.60;17.60;;;;;29.94;37.22;99265.75;6231205;27;97536;-59
2022/08/12 08:16:42;;;;;;;;;18.80;18.00;;;;;30.13;37.38;99266.88;6239135;27;97159;-57
2022/08/12 08:19:51;;;;;;;;;17.60;17.60;;;;;30.33;37.40;99269.97;6238528;27;97630;-56
2022/08/12 08:23:09;;;;;;;;;21.00;20.00;;;;;30.46;36.67;99263.28;6233940;27;96545;-57
2022/08/12 08:26:14;;;;;;;;;25.00;23.00;;;;;30.57;36.34;99264.47;6234703;27;97077;-58
2022/08/12 08:29:20;;;;;;;;;20.00;18.00;;;;;30.67;36.60;99260.44;6225730;28;96621;-59
2022/08/12 08:32:25;;;;;;;;;19.80;19.20;;;;;30.78;36.39;99265.22;6231706;27;97089;-57
2022/08/12 08:35:28;;;;;;;;;19.00;18.50;;;;;30.85;35.31;99272.97;6233062;27;97517;-58
2022/08/12 08:38:49;;;;;;;;;19.50;18.50;;;;;30.90;35.06;99268.00;6232854;27;97678;-60
2022/08/12 08:45:22;;;;;;;;;15.00;15.00;;;;;30.92;35.51;99265.69;6225949;28;97613;-57
2022/08/12 08:48:31;;;;;;;;;20.00;18.50;;;;;30.91;34.79;99275.19;6228774;28;96632;-61
2022/08/12 08:51:35;;;;;;;;;17.60;17.40;;;;;30.87;34.56;99271.50;6228478;27;96726;-59
2022/08/12 08:54:39;;;;;;;;;19.40;18.00;;;;;30.85;35.47;99272.97;6232048;27;97132;-61
2022/08/12 08:57:46;;;;;;;;;15.00;14.20;;;;;30.95;34.72;99278.09;6238572;27;97213;-62
2022/08/12 09:00:50;;;;;;;;;15.00;15.00;;;;;31.11;35.98;99279.06;6233871;27;97778;-63
2022/08/12 09:03:55;;;;;;;;;18.00;17.80;;;;;31.07;35.26;99277.34;6229624;27;98091;-58
2022/08/12 09:07:19;;;;;;;;;18.00;17.00;;;;;31.23;35.61;99287.41;6230126;28;97181;-58
2022/08/12 09:10:42;;;;;;;;;18.00;17.00;;;;;31.36;34.34;99277.91;6226856;27;97509;-62
2022/08/12 09:13:47;;;;;;;;;20.40;19.00;;;;;31.36;34.61;99289.06;6226658;28;96672;-61
2022/08/12 09:17:12;;;;;;;;;18.00;18.00;;;;;31.24;34.75;99269.53;6238981;27;97299;-62
2022/08/12 09:20:26;;;;;;;;;17.00;17.00;;;;;31.33;35.03;99284.16;6237636;27;99421;-57
2022/08/12 09:23:33;;;;;;;;;20.00;20.00;;;;;31.50;35.16;99296.22;6236064;28;97192;-62
2022/08/12 09:26:56;;;;;;;;;17.00;16.00;;;;;31.56;34.44;99306.81;6235853;27;96532;-58
2022/08/12 09:30:02;;;;;;;;;21.00;21.00;;;;;31.40;34.55;99294.72;6243520;27;96713;-62
2022/08/12 09:33:16;;;;;;;;;17.00;17.00;;;;;31.38;35.46;99302.59;6239169;27;97618;-58
2022/08/12 09:36:41;;;;;;;;;23.00;22.33;;;;;31.44;34.67;99297.63;6228769;27;97464;-57
2022/08/12 09:40:04;;;;;;;;;18.40;17.40;;;;;31.58;35.59;99298.91;6226039;27;97428;-58
2022/08/12 09:47:02;;;;;;;;;18.00;18.00;;;;;31.83;34.56;99292.13;6236877;27;96490;-61
2022/08/12 09:50:15;;;;;;;;;23.60;22.40;;;;;32.02;34.63;99282.28;6229516;28;96625;-56
2022/08/12 09:53:25;;;;;;;;;12.75;12.25;;;;;32.15;34.30;99273.56;6235616;28;97239;-57
2022/08/12 09:56:41;;;;;;;;;17.40;17.40;;;;;32.30;34.21;99285.13;6233755;28;97412;-55
2022/08/12 10:00:04;;;;;;;;;15.50;15.50;;;;;32.48;34.42;99278.88;6231697;27;96967;-59
2022/08/12 10:03:21;;;;;;;;;9.00;9.00;;;;;32.55;33.35;99281.03;6236916;28;97523;-56
2022/08/12 10:06:34;;;;;;;;;16.00;16.00;;;;;32.59;32.97;99268.81;6237007;27;97039;-60
2022/08/12 10:09:59;;;;;;;;;16.60;16.00;;;;;32.58;33.22;99246.81;6224373;28;97006;-60
2022/08/12 10:16:44;;;;;;;;;13.50;13.50;;;;;32.64;32.84;99251.81;6233506;27;97317;-58
2022/08/12 10:19:47;;;;;;;;;15.00;15.00;;;;;32.81;33.82;99261.00;6231098;28;97546;-56
2022/08/12 10:23:00;;;;;;;;;13.75;13.75;;;;;32.97;33.06;99261.81;6227975;28;96682;-54
2022/08/12 10:29:43;;;;;;;;;16.00;15.00;;;;;33.31;32.92;99252.69;6233747;28;97350;-60
2022/08/12 10:33:06;;;;;;;;;15.00;13.60;;;;;33.45;31.31;99252.22;6237567;27;96821;-63
2022/08/12 10:36:30;;;;;;;;;15.20;15.20;;;;;33.40;32.37;99250.50;6237711;27;96938;-61
2022/08/12 10:39:42;;;;;;;;;16.00;16.00;;;;;33.43;31.72;99244.19;6230736;28;98208;-59
2022/08/12 10:46:26;;;;;;;;;13.60;13.00;;;;;33.66;32.10;99233.13;6234091;28;97378;-59
2022/08/12 10:49:35;;;;;;;;;16.00;16.00;;;;;33.55;30.90;99236.84;6235494;28;97548;-62
2022/08/12 10:52:59;;;;;;;;;15.33;15.00;;;;;33.29;31.38;99221.50;6223713;28;97551;-61
2022/08/12 10:56:04;;;;;;;;;14.40;14.40;;;;;33.19;31.81;99222.06;6229138;28;97356;-55
2022/08/12 10:59:08;;;;;;;;;14.60;13.80;;;;;33.14;32.06;99221.50;6235889;27;96532;-60
2022/08/12 11:02:14;;;;;;;;;16.40;15.80;;;;;33.22;32.15;99220.53;6234876;27;97089;-61
2022/08/12 11:05:38;;;;;;;;;16.00;15.00;;;;;33.36;32.07;99224.47;6229940;28;98033;-58
2022/08/12 11:09:01;;;;;;;;;16.75;15.75;;;;;33.28;31.50;99217.06;6259354;27;97555;-55
2022/08/12 11:12:15;;;;;;;;;18.00;17.00;;;;;33.38;31.34;99212.94;6221980;27;97240;-56
2022/08/12 11:15:40;;;;;;;;;16.80;16.00;;;;;33.58;31.16;99213.75;6231680;28;96950;-56
2022/08/12 11:19:03;;;;;;;;;14.00;13.40;;;;;33.66;30.82;99205.16;6235381;28;97168;-61
2022/08/12 11:22:08;;;;;;;;;13.20;13.20;;;;;33.67;30.98;99205.97;6229647;27;97550;-58
2022/08/12 11:25:13;;;;;;;;;12.60;11.60;;;;;33.73;31.32;99198.91;6226992;27;97027;-56
2022/08/12 11:28:18;;;;;;;;;14.00;13.60;;;;;33.84;30.59;99197.97;6227146;28;97430;-55
2022/08/12 11:31:37;;;;;;;;;14.00;13.00;;;;;33.89;30.09;99191.25;6223733;28;97201;-57
2022/08/12 11:35:00;;;;;;;;;13.00;12.80;;;;;33.90;30.43;99192.88;6226542;28;96678;-55
2022/08/12 11:38:03;;;;;;;;;16.00;15.00;;;;;33.94;29.92;99188.16;6215583;27;96892;-58
2022/08/12 11:41:11;;;;;;;;;18.00;16.75;;;;;33.87;30.31;99190.81;6230584;27;96685;-58
2022/08/12 11:44:16;;;;;;;;;12.67;12.67;;;;;34.01;31.04;99205.09;6219850;28;97402;-60
2022/08/12 11:47:40;;;;;;;;;13.40;13.00;;;;;34.19;30.08;99185.88;6216659;28;97635;-54
2022/08/12 11:50:44;;;;;;;;;15.20;14.00;;;;;34.33;29.95;99198.16;6225970;28;97150;-55
2022/08/12 11:53:47;;;;;;;;;13.20;11.60;;;;;34.41;29.75;99189.84;6230465;27;97071;-60
2022/08/12 11:57:01;;;;;;;;;15.80;15.00;;;;;34.41;30.00;99192.66;6227721;28;96731;-58
2022/08/12 12:00:25;;;;;;;;;17.00;15.40;;;;;34.49;30.39;99189.63;6235111;28;98149;-59
2022/08/12 12:03:50;;;;;;;;;17.25;15.25;;;;;34.39;29.72;99173.47;6232128;27;97908;-65
2022/08/12 12:06:57;;;;;;;;;16.60;15.00;;;;;34.20;30.79;99159.50;6235584;27;97504;-59
2022/08/12 12:10:15;;;;;;;;;16.00;16.00;;;;;34.38;30.08;99183.03;6230747;28;96683;-59
2022/08/12 12:13:19;;;;;;;;;19.00;19.00;;;;;34.41;29.85;99192.66;6236483;27;97550;-59
2022/08/12 12:16:43;;;;;;;;;17.00;17.00;;;;;34.55;30.17;99187.34;6236415;28;96861;-56
2022/08/12 12:19:54;;;;;;;;;17.75;17.00;;;;;34.45;29.45;99187.97;6234894;27;97967;-60
2022/08/12 12:22:57;;;;;;;;;17.00;16.00;;;;;34.41;29.72;99179.47;6236970;27;96758;-57
2022/08/12 12:26:01;;;;;;;;;17.00;15.00;;;;;34.49;29.77;99181.22;6233466;28;97108;-56
2022/08/12 12:29:10;;;;;;;;;15.60;15.60;;;;;34.50;28.92;99176.44;6234049;27;97011;-61
2022/08/12 12:32:33;;;;;;;;;15.25;15.00;;;;;34.57;29.66;99173.75;6240940;27;97579;-60
2022/08/12 12:35:40;;;;;;;;;17.00;16.00;;;;;34.67;29.97;99168.38;6244660;27;96789;-57
2022/08/12 12:39:03;;;;;;;;;19.50;18.00;;;;;34.70;29.30;99161.19;6244553;27;96997;-60
2022/08/12 12:42:12;;;;;;;;;17.20;16.60;;;;;34.75;29.31;99164.47;6190008;28;97584;-55
2022/08/12 12:45:38;;;;;;;;;16.25;16.25;;;;;34.86;29.44;99155.44;6178720;28;97485;-56
2022/08/12 12:48:46;;;;;;;;;19.00;18.00;;;;;34.95;28.81;99153.97;6192788;28;97600;-58
2022/08/12 12:51:50;;;;;;;;;15.00;14.00;;;;;35.04;29.38;99143.31;6195013;28;97497;-54
2022/08/12 12:55:15;;;;;;;;;15.00;15.00;;;;;35.13;29.75;99138.25;6186741;28;97554;-59
2022/08/12 12:58:19;;;;;;;;;16.60;16.00;;;;;35.23;28.78;99133.22;6176286;28;97243;-54
2022/08/12 13:01:24;;;;;;;;;14.00;13.75;;;;;35.16;28.73;99120.69;6180075;28;98727;-53
2022/08/12 13:04:35;;;;;;;;;11.75;11.75;;;;;35.35;28.15;99133.75;6181285;28;97121;-53
2022/08/12 13:07:41;;;;;;;;;15.00;13.50;;;;;35.35;28.09;99146.97;6179682;28;96895;-54
2022/08/12 13:11:05;;;;;;;;;15.00;14.00;;;;;35.26;28.06;99133.25;6184515;28;98187;-54
2022/08/12 13:14:10;;;;;;;;;13.00;13.00;;;;;35.22;27.68;99132.41;6181588;28;98843;-58
2022/08/12 13:17:33;;;;;;;;;15.50;15.00;;;;;35.12;27.97;99133.03;6176481;28;97436;-59
2022/08/12 13:20:57;;;;;;;;;12.60;12.20;;;;;34.95;28.55;99130.75;6189352;28;98747;-56
2022/08/12 13:24:03;;;;;;;;;13.00;13.00;;;;;34.96;28.77;99122.00;6186479;28;97560;-55
2022/08/12 13:27:14;;;;;;;;;12.75;12.00;;;;;35.02;27.92;99125.28;6186518;28;97617;-57
2022/08/12 13:30:20;;;;;;;;;10.40;10.20;;;;;35.02;28.55;99117.69;6189138;28;97722;-59
2022/08/12 13:33:31;;;;;;;;;11.00;11.00;;;;;34.88;28.08;99099.84;6174834;28;97430;-62
2022/08/12 13:36:55;;;;;;;;;13.40;12.40;;;;;34.81;28.19;99113.75;6183811;28;97138;-61
2022/08/12 13:40:01;;;;;;;;;12.40;12.40;;;;;34.81;28.56;99114.56;6183262;28;96758;-59
2022/08/12 13:43:05;;;;;;;;;12.00;12.00;;;;;34.84;28.85;99111.03;6214843;28;97442;-60
2022/08/12 13:46:08;;;;;;;;;14.25;13.50;;;;;34.75;28.42;99114.06;6226801;27;97430;-60
2022/08/12 13:49:14;;;;;;;;;13.80;13.80;;;;;34.55;28.09;99104.13;6221635;28;96925;-57
2022/08/12 13:52:22;;;;;;;;;12.60;12.20;;;;;34.38;28.68;99112.22;6220456;28;97092;-55
2022/08/12 13:55:28;;;;;;;;;11.50;11.50;;;;;34.27;29.17;99100.84;6215382;28;96670;-60
2022/08/12 13:58:36;;;;;;;;;12.60;12.40;;;;;34.26;28.62;99102.84;6232226;27;98168;-57
2022/08/12 14:01:40;;;;;;;;;9.00;8.40;;;;;34.20;27.91;99098.75;6237619;27;97427;-58
2022/08/12 14:04:44;;;;;;;;;15.00;15.00;;;;;34.17;28.01;99093.88;6237189;27;97450;-57
2022/08/12 14:08:00;;;;;;;;;11.00;11.00;;;;;34.02;28.66;99094.78;6226985;28;97583;-54
2022/08/12 14:11:08;;;;;;;;;12.00;12.00;;;;;33.78;28.32;99078.38;6237449;28;97645;-61
2022/08/12 14:14:15;;;;;;;;;15.50;15.00;;;;;33.91;28.81;99096.59;6228721;28;97402;-57
2022/08/12 14:17:18;;;;;;;;;11.00;10.00;;;;;33.94;28.53;99101.44;6237556;27;96700;-59
2022/08/12 14:20:25;;;;;;;;;11.40;11.40;;;;;33.87;28.56;99095.72;6231068;27;97010;-56
2022/08/12 14:23:31;;;;;;;;;11.20;11.20;;;;;33.75;28.55;99087.50;6225141;27;96990;-60
2022/08/12 14:26:55;;;;;;;;;9.20;9.20;;;;;33.68;28.90;99085.38;6238523;28;97404;-58
2022/08/12 14:30:04;;;;;;;;;15.00;15.00;;;;;33.61;28.88;99088.03;6228764;27;97355;-59
2022/08/12 14:33:20;;;;;;;;;16.00;16.00;;;;;33.59;29.42;99076.38;6237851;28;96626;-59
2022/08/12 14:36:25;;;;;;;;;11.20;11.20;;;;;33.50;28.92;99073.81;6239410;27;98650;-55
2022/08/12 14:39:28;;;;;;;;;14.00;14.00;;;;;33.50;29.19;99065.44;6241199;27;97500;-53
2022/08/12 14:42:34;;;;;;;;;13.00;12.40;;;;;33.53;29.21;99067.47;6232209;28;97211;-53
2022/08/12 14:45:37;;;;;;;;;12.75;12.75;;;;;33.40;29.03;99057.66;6227696;28;97473;-60
2022/08/12 14:48:53;;;;;;;;;13.20;11.00;;;;;33.22;29.91;99067.66;6236267;28;97564;-62
2022/08/12 14:51:57;;;;;;;;;12.80;11.80;;;;;33.19;30.34;99051.63;6231745;28;97498;-58
2022/08/12 14:55:20;;;;;;;;;15.00;13.40;;;;;33.15;30.21;99045.13;6236951;27;97611;-60
2022/08/12 15:02:22;;;;;;;;;14.60;14.60;;;;;33.18;30.59;99050.03;6236644;27;97534;-61
2022/08/12 15:05:28;;;;;;;;;14.60;13.00;;;;;33.05;30.33;99043.72;6228561;28;98282;-60
2022/08/12 15:08:53;;;;;;;;;14.60;14.60;;;;;32.82;30.36;99042.81;6230930;28;97711;-61
2022/08/12 15:11:56;;;;;;;;;16.00;16.00;;;;;32.81;30.63;99052.38;6225217;28;96684;-60
2022/08/12 15:15:08;;;;;;;;;11.33;11.33;;;;;32.63;30.50;99045.56;6231865;28;97392;-57
2022/08/12 15:18:15;;;;;;;;;16.60;16.40;;;;;32.53;30.90;99035.75;6234884;28;96563;-54
2022/08/12 15:21:24;;;;;;;;;15.00;15.00;;;;;32.47;31.44;99030.81;6231366;28;97215;-55
2022/08/12 15:24:48;;;;;;;;;14.00;14.00;;;;;32.41;31.42;99037.84;6223424;28;96796;-60
2022/08/12 15:27:52;;;;;;;;;13.20;12.60;;;;;32.32;31.41;99052.00;6222765;28;97018;-62
2022/08/12 15:31:12;;;;;;;;;15.00;15.00;;;;;32.25;31.87;99051.84;6250337;27;97682;-57
2022/08/12 15:34:32;;;;;;;;;15.00;15.00;;;;;32.23;31.91;99045.81;6237304;27;97211;-55
2022/08/12 15:37:35;;;;;;;;;16.00;15.00;;;;;32.25;31.92;99049.06;6223196;27;97662;-56
2022/08/12 15:40:59;;;;;;;;;18.00;17.60;;;;;32.23;31.79;99054.16;6222339;27;97666;-61
2022/08/12 15:44:03;;;;;;;;;17.60;17.00;;;;;32.16;32.19;99040.84;6219197;27;96935;-59
2022/08/12 15:47:28;;;;;;;;;16.80;16.00;;;;;32.18;32.40;99043.28;6227541;27;98486;-57
2022/08/12 15:50:50;;;;;;;;;17.00;17.00;;;;;32.08;31.84;99038.22;6228720;27;97490;-58
2022/08/12 15:54:06;;;;;;;;;16.00;15.00;;;;;31.88;31.76;99009.44;6233391;27;97353;-59
2022/08/12 15:57:29;;;;;;;;;13.25;13.00;;;;;31.93;32.04;99028.69;6238909;27;97975;-62
2022/08/12 16:00:37;;;;;;;;;13.33;12.33;;;;;31.90;32.78;99023.03;6228018;27;97585;-55
2022/08/12 16:03:42;;;;;;;;;14.80;14.40;;;;;31.89;32.54;99025.00;6230094;27;97655;-60
2022/08/12 16:07:02;;;;;;;;;16.00;14.00;;;;;31.82;32.72;99020.03;6230236;27;97078;-59
2022/08/12 16:10:12;;;;;;;;;18.00;16.75;;;;;31.81;32.61;99020.41;6229145;27;96722;-61
2022/08/12 16:13:18;;;;;;;;;17.20;16.20;;;;;31.80;32.71;99019.59;6231096;27;97664;-54
2022/08/12 16:16:36;;;;;;;;;17.00;17.00;;;;;31.69;32.92;98999.00;6232196;27;96856;-57
2022/08/12 16:19:42;;;;;;;;;13.60;13.00;;;;;31.80;32.75;99018.78;6225115;27;96656;-56
2022/08/12 16:23:10;;;;;;;;;19.00;18.25;;;;;31.62;32.83;98990.44;6228884;27;97434;-57